Aérodrome :
LOGIN :

S'inscrire | Disclaimer

   EN    FR    IT 

 










Légende :    VFR   VFR Marginal   IFR   IFR Intensif   IFR Très Intensif
Visi : 
Plafond : 
>= 8 km
>= 3000ft
5 à 8 km
1000 à 3000 ft
1500m à 5 km
500 à 1000 ft
800 à 1500m
200 à 500 ft
< 800m
< 200 ft
Symboles :   Orages  Brouillard  Fortes neiges  Fortes précipitations  Vent > 20 kt
SIGMETs :   Divers  Orages  Givrage  Turbulence  Onde Orograph.  Cendres Volcan.







- Altitude de l'aérodrome : 209 ft
- Code IATA : CLY
- Voir les cartes d'approche


LFKC - Calvi

DERNIER METAR :
  • 172300Z AUTO 17003KT CAVOK 16/15 Q1013

METARs EXPIRÉS :
  • 172230Z AUTO VRB03KT CAVOK 17/15 Q1013
  • 172200Z AUTO 19003KT CAVOK 17/15 Q1013
  • 172130Z AUTO 19005KT CAVOK 17/16 Q1013
  • 172100Z AUTO VRB02KT CAVOK 17/16 Q1013
  • 172030Z AUTO 21005KT 9999 FEW098 BKN110 BKN140 17/16 Q1013 NOSIG
  • 172000Z AUTO VRB03KT 9999 FEW096 BKN110 BKN130 18/17 Q1013 NOSIG

TAF TAF LFKC
Valide du 17 à 15h jusqu'au 18 à 15h UTC


171400Z 1715/1815 VRB03KT 9999 FEW040 BKN070 TX24/1812Z TN14/1804Z
BECMG 1718/1720 18005KT
BECMG 1804/1806 FEW030 SCT090
BECMG 1808/1810 34004KT FEW050
ATIS : +33 4 95 65 82 49
Pas de NOTAMs connus pour ce terrain.



MET'MAP, la Météo Aéronautique d'un coup d'oeil ! - Copyright ORBIFLY Décembre 2007 - Disclaimer

ORBIFLY MET'MAP TEAM :

Programmation & Développement : Alexandra Zaïnal
Conception & Développement : Baudouin d'Aumeries
Co-Programmation & Développement : Marc-Olivier Méhu
Soutien technique & logistique : Manuel Goepfert

Contact : metmap@orbifly.com




SOURCES & CREDITS :

   NOAA